sensor_id;sensor_type;location;lat;lon;timestamp;P1;durP1;ratioP1;P2;durP2;ratioP2
6223;SDS011;3145;42.726;23.342;2023-08-31T00:00:48;3.20;;;2.87;;
6223;SDS011;3145;42.726;23.342;2023-08-31T00:03:16;3.40;;;2.90;;
6223;SDS011;3145;42.726;23.342;2023-08-31T00:05:44;6.83;;;3.33;;
6223;SDS011;3145;42.726;23.342;2023-08-31T00:08:11;2.97;;;2.67;;
6223;SDS011;3145;42.726;23.342;2023-08-31T00:10:40;4.47;;;2.40;;
6223;SDS011;3145;42.726;23.342;2023-08-31T00:13:06;5.30;;;2.23;;
6223;SDS011;3145;42.726;23.342;2023-08-31T00:15:33;4.10;;;2.70;;
6223;SDS011;3145;42.726;23.342;2023-08-31T00:18:00;3.47;;;2.10;;
6223;SDS011;3145;42.726;23.342;2023-08-31T00:20:28;4.00;;;2.30;;
6223;SDS011;3145;42.726;23.342;2023-08-31T00:22:56;3.07;;;2.73;;
6223;SDS011;3145;42.726;23.342;2023-08-31T00:25:23;2.93;;;2.20;;
6223;SDS011;3145;42.726;23.342;2023-08-31T00:27:51;3.13;;;2.30;;
6223;SDS011;3145;42.726;23.342;2023-08-31T00:30:19;3.27;;;2.57;;
6223;SDS011;3145;42.726;23.342;2023-08-31T00:32:46;5.60;;;2.73;;
6223;SDS011;3145;42.726;23.342;2023-08-31T00:35:13;2.87;;;1.97;;
6223;SDS011;3145;42.726;23.342;2023-08-31T00:37:40;3.27;;;2.27;;
6223;SDS011;3145;42.726;23.342;2023-08-31T00:40:07;4.27;;;2.77;;
6223;SDS011;3145;42.726;23.342;2023-08-31T00:42:36;3.23;;;1.93;;
6223;SDS011;3145;42.726;23.342;2023-08-31T00:45:05;3.77;;;2.20;;
6223;SDS011;3145;42.726;23.342;2023-08-31T00:47:32;2.67;;;1.90;;
6223;SDS011;3145;42.726;23.342;2023-08-31T00:49:59;5.17;;;2.37;;
6223;SDS011;3145;42.726;23.342;2023-08-31T00:52:27;3.53;;;2.40;;
6223;SDS011;3145;42.726;23.342;2023-08-31T00:54:54;3.47;;;2.90;;
6223;SDS011;3145;42.726;23.342;2023-08-31T00:57:20;3.23;;;2.50;;
6223;SDS011;3145;42.726;23.342;2023-08-31T00:59:47;3.63;;;2.50;;
6223;SDS011;3145;42.726;23.342;2023-08-31T01:02:17;4.70;;;3.00;;
6223;SDS011;3145;42.726;23.342;2023-08-31T01:04:48;2.93;;;2.73;;
6223;SDS011;3145;42.726;23.342;2023-08-31T01:07:26;3.73;;;2.73;;
6223;SDS011;3145;42.726;23.342;2023-08-31T01:10:02;2.87;;;2.57;;
6223;SDS011;3145;42.726;23.342;2023-08-31T01:12:34;4.77;;;2.90;;
6223;SDS011;3145;42.726;23.342;2023-08-31T01:15:10;3.73;;;2.60;;
6223;SDS011;3145;42.726;23.342;2023-08-31T01:17:39;5.80;;;2.90;;
6223;SDS011;3145;42.726;23.342;2023-08-31T01:20:10;6.00;;;3.03;;
6223;SDS011;3145;42.726;23.342;2023-08-31T01:22:43;5.67;;;2.40;;
6223;SDS011;3145;42.726;23.342;2023-08-31T01:25:15;3.23;;;2.30;;
6223;SDS011;3145;42.726;23.342;2023-08-31T01:27:42;5.27;;;3.13;;
6223;SDS011;3145;42.726;23.342;2023-08-31T01:30:10;7.50;;;2.83;;
6223;SDS011;3145;42.726;23.342;2023-08-31T01:32:37;3.83;;;2.73;;
6223;SDS011;3145;42.726;23.342;2023-08-31T01:35:04;8.30;;;3.00;;
6223;SDS011;3145;42.726;23.342;2023-08-31T01:37:34;6.60;;;3.10;;
6223;SDS011;3145;42.726;23.342;2023-08-31T01:40:09;4.93;;;2.80;;
6223;SDS011;3145;42.726;23.342;2023-08-31T01:42:43;4.17;;;2.53;;
6223;SDS011;3145;42.726;23.342;2023-08-31T01:45:11;3.20;;;2.47;;
6223;SDS011;3145;42.726;23.342;2023-08-31T01:47:40;7.70;;;2.80;;
6223;SDS011;3145;42.726;23.342;2023-08-31T01:50:08;3.67;;;2.53;;
6223;SDS011;3145;42.726;23.342;2023-08-31T01:52:35;3.17;;;2.40;;
6223;SDS011;3145;42.726;23.342;2023-08-31T01:55:02;3.03;;;2.57;;
6223;SDS011;3145;42.726;23.342;2023-08-31T01:57:30;3.03;;;2.27;;
6223;SDS011;3145;42.726;23.342;2023-08-31T01:59:58;7.67;;;2.73;;
6223;SDS011;3145;42.726;23.342;2023-08-31T02:02:25;3.57;;;2.47;;
6223;SDS011;3145;42.726;23.342;2023-08-31T02:04:51;4.73;;;2.97;;
6223;SDS011;3145;42.726;23.342;2023-08-31T02:07:18;6.00;;;3.03;;
6223;SDS011;3145;42.726;23.342;2023-08-31T02:09:45;5.33;;;2.40;;
6223;SDS011;3145;42.726;23.342;2023-08-31T02:12:12;4.97;;;3.00;;
6223;SDS011;3145;42.726;23.342;2023-08-31T02:14:38;6.60;;;2.60;;
6223;SDS011;3145;42.726;23.342;2023-08-31T02:17:06;3.67;;;2.70;;
6223;SDS011;3145;42.726;23.342;2023-08-31T02:19:33;3.13;;;2.80;;
6223;SDS011;3145;42.726;23.342;2023-08-31T02:22:00;6.37;;;2.90;;
6223;SDS011;3145;42.726;23.342;2023-08-31T02:24:26;2.50;;;2.30;;
6223;SDS011;3145;42.726;23.342;2023-08-31T02:26:53;6.27;;;2.70;;
6223;SDS011;3145;42.726;23.342;2023-08-31T02:29:20;5.93;;;2.57;;
6223;SDS011;3145;42.726;23.342;2023-08-31T02:31:46;4.37;;;3.00;;
6223;SDS011;3145;42.726;23.342;2023-08-31T02:34:15;3.10;;;2.80;;
6223;SDS011;3145;42.726;23.342;2023-08-31T02:36:41;4.00;;;2.57;;
6223;SDS011;3145;42.726;23.342;2023-08-31T02:39:08;4.23;;;3.13;;
6223;SDS011;3145;42.726;23.342;2023-08-31T02:41:35;3.57;;;2.53;;
6223;SDS011;3145;42.726;23.342;2023-08-31T02:44:02;3.70;;;3.10;;
6223;SDS011;3145;42.726;23.342;2023-08-31T02:46:28;4.47;;;3.33;;
6223;SDS011;3145;42.726;23.342;2023-08-31T02:48:55;6.73;;;3.07;;
6223;SDS011;3145;42.726;23.342;2023-08-31T02:51:23;5.33;;;4.10;;
6223;SDS011;3145;42.726;23.342;2023-08-31T02:53:50;4.37;;;3.33;;
6223;SDS011;3145;42.726;23.342;2023-08-31T02:56:18;6.03;;;3.50;;
6223;SDS011;3145;42.726;23.342;2023-08-31T02:58:45;4.40;;;3.27;;
6223;SDS011;3145;42.726;23.342;2023-08-31T03:01:12;4.37;;;3.40;;
6223;SDS011;3145;42.726;23.342;2023-08-31T03:03:40;4.83;;;3.20;;
6223;SDS011;3145;42.726;23.342;2023-08-31T03:06:08;4.23;;;3.83;;
6223;SDS011;3145;42.726;23.342;2023-08-31T03:08:37;6.60;;;3.63;;
6223;SDS011;3145;42.726;23.342;2023-08-31T03:11:04;4.23;;;3.83;;
6223;SDS011;3145;42.726;23.342;2023-08-31T03:13:32;10.33;;;4.47;;
6223;SDS011;3145;42.726;23.342;2023-08-31T03:15:59;5.93;;;3.70;;
6223;SDS011;3145;42.726;23.342;2023-08-31T03:18:26;49.33;;;42.23;;
6223;SDS011;3145;42.726;23.342;2023-08-31T03:20:54;75.90;;;57.23;;
6223;SDS011;3145;42.726;23.342;2023-08-31T03:23:21;100.40;;;75.80;;
6223;SDS011;3145;42.726;23.342;2023-08-31T03:25:49;154.20;;;129.83;;
6223;SDS011;3145;42.726;23.342;2023-08-31T03:28:15;175.50;;;135.80;;
6223;SDS011;3145;42.726;23.342;2023-08-31T03:30:42;140.43;;;113.40;;
6223;SDS011;3145;42.726;23.342;2023-08-31T03:33:10;117.80;;;93.43;;
6223;SDS011;3145;42.726;23.342;2023-08-31T03:35:37;70.07;;;52.73;;
6223;SDS011;3145;42.726;23.342;2023-08-31T03:38:04;24.20;;;20.27;;
6223;SDS011;3145;42.726;23.342;2023-08-31T03:40:30;27.60;;;17.97;;
6223;SDS011;3145;42.726;23.342;2023-08-31T03:42:59;6.40;;;5.80;;
6223;SDS011;3145;42.726;23.342;2023-08-31T03:45:25;10.57;;;7.97;;
6223;SDS011;3145;42.726;23.342;2023-08-31T03:47:53;9.13;;;7.50;;
6223;SDS011;3145;42.726;23.342;2023-08-31T03:50:20;8.53;;;6.77;;
6223;SDS011;3145;42.726;23.342;2023-08-31T03:52:47;8.80;;;6.33;;
6223;SDS011;3145;42.726;23.342;2023-08-31T03:55:13;7.93;;;6.53;;
6223;SDS011;3145;42.726;23.342;2023-08-31T03:57:40;8.40;;;6.97;;
6223;SDS011;3145;42.726;23.342;2023-08-31T04:00:09;12.53;;;6.43;;
6223;SDS011;3145;42.726;23.342;2023-08-31T04:02:37;8.77;;;4.53;;
6223;SDS011;3145;42.726;23.342;2023-08-31T04:05:05;7.60;;;5.20;;
6223;SDS011;3145;42.726;23.342;2023-08-31T04:07:34;11.63;;;6.40;;
6223;SDS011;3145;42.726;23.342;2023-08-31T04:10:01;8.80;;;6.27;;
6223;SDS011;3145;42.726;23.342;2023-08-31T04:12:28;7.77;;;6.10;;
6223;SDS011;3145;42.726;23.342;2023-08-31T04:14:55;7.87;;;5.80;;
6223;SDS011;3145;42.726;23.342;2023-08-31T04:17:24;5.53;;;5.00;;
6223;SDS011;3145;42.726;23.342;2023-08-31T04:19:51;6.37;;;5.37;;
6223;SDS011;3145;42.726;23.342;2023-08-31T04:22:18;10.23;;;4.70;;
6223;SDS011;3145;42.726;23.342;2023-08-31T04:24:44;6.93;;;4.67;;
6223;SDS011;3145;42.726;23.342;2023-08-31T04:27:11;10.73;;;3.57;;
6223;SDS011;3145;42.726;23.342;2023-08-31T04:29:38;7.27;;;3.93;;
6223;SDS011;3145;42.726;23.342;2023-08-31T04:32:05;6.87;;;4.00;;
6223;SDS011;3145;42.726;23.342;2023-08-31T04:34:33;6.73;;;4.20;;
6223;SDS011;3145;42.726;23.342;2023-08-31T04:37:00;5.10;;;3.93;;
6223;SDS011;3145;42.726;23.342;2023-08-31T04:39:27;6.73;;;4.20;;
6223;SDS011;3145;42.726;23.342;2023-08-31T04:41:54;8.87;;;5.77;;
6223;SDS011;3145;42.726;23.342;2023-08-31T04:44:20;8.73;;;5.17;;
6223;SDS011;3145;42.726;23.342;2023-08-31T04:46:47;7.23;;;5.07;;
6223;SDS011;3145;42.726;23.342;2023-08-31T04:49:14;8.67;;;5.10;;
6223;SDS011;3145;42.726;23.342;2023-08-31T04:51:43;7.83;;;4.83;;
6223;SDS011;3145;42.726;23.342;2023-08-31T04:54:10;5.17;;;3.80;;
6223;SDS011;3145;42.726;23.342;2023-08-31T04:56:37;5.57;;;3.03;;
6223;SDS011;3145;42.726;23.342;2023-08-31T04:59:03;5.50;;;2.93;;
6223;SDS011;3145;42.726;23.342;2023-08-31T05:01:30;5.30;;;3.23;;
6223;SDS011;3145;42.726;23.342;2023-08-31T05:03:57;4.73;;;2.70;;
6223;SDS011;3145;42.726;23.342;2023-08-31T05:06:24;12.50;;;3.23;;
6223;SDS011;3145;42.726;23.342;2023-08-31T05:08:52;6.00;;;2.90;;
6223;SDS011;3145;42.726;23.342;2023-08-31T05:11:19;6.80;;;3.47;;
6223;SDS011;3145;42.726;23.342;2023-08-31T05:13:46;6.67;;;3.77;;
6223;SDS011;3145;42.726;23.342;2023-08-31T05:16:13;9.60;;;4.63;;
6223;SDS011;3145;42.726;23.342;2023-08-31T05:18:40;9.73;;;4.57;;
6223;SDS011;3145;42.726;23.342;2023-08-31T05:21:07;8.50;;;5.03;;
6223;SDS011;3145;42.726;23.342;2023-08-31T05:23:34;4.17;;;3.33;;
6223;SDS011;3145;42.726;23.342;2023-08-31T05:26:02;7.13;;;3.33;;
6223;SDS011;3145;42.726;23.342;2023-08-31T05:28:29;7.57;;;3.60;;
6223;SDS011;3145;42.726;23.342;2023-08-31T05:30:56;5.80;;;3.50;;
6223;SDS011;3145;42.726;23.342;2023-08-31T05:33:23;6.57;;;3.27;;
6223;SDS011;3145;42.726;23.342;2023-08-31T05:35:53;5.23;;;3.00;;
6223;SDS011;3145;42.726;23.342;2023-08-31T05:38:20;5.13;;;3.50;;
6223;SDS011;3145;42.726;23.342;2023-08-31T05:40:47;3.50;;;3.20;;
6223;SDS011;3145;42.726;23.342;2023-08-31T05:43:15;4.90;;;3.10;;
6223;SDS011;3145;42.726;23.342;2023-08-31T05:45:42;6.10;;;3.50;;
6223;SDS011;3145;42.726;23.342;2023-08-31T05:48:09;9.57;;;3.77;;
6223;SDS011;3145;42.726;23.342;2023-08-31T05:50:35;6.03;;;4.17;;
6223;SDS011;3145;42.726;23.342;2023-08-31T05:53:03;9.37;;;4.43;;
6223;SDS011;3145;42.726;23.342;2023-08-31T05:55:30;9.32;;;3.95;;
6223;SDS011;3145;42.726;23.342;2023-08-31T05:57:57;16.08;;;3.75;;
6223;SDS011;3145;42.726;23.342;2023-08-31T06:00:26;11.38;;;4.05;;
6223;SDS011;3145;42.726;23.342;2023-08-31T06:02:53;14.40;;;3.35;;
6223;SDS011;3145;42.726;23.342;2023-08-31T06:05:20;6.78;;;3.67;;
6223;SDS011;3145;42.726;23.342;2023-08-31T06:07:47;5.57;;;2.35;;
6223;SDS011;3145;42.726;23.342;2023-08-31T06:10:13;7.32;;;2.72;;
6223;SDS011;3145;42.726;23.342;2023-08-31T06:12:40;7.82;;;2.55;;
6223;SDS011;3145;42.726;23.342;2023-08-31T06:15:07;5.28;;;2.97;;
6223;SDS011;3145;42.726;23.342;2023-08-31T06:17:36;3.95;;;2.75;;
6223;SDS011;3145;42.726;23.342;2023-08-31T06:20:03;7.70;;;2.63;;
6223;SDS011;3145;42.726;23.342;2023-08-31T06:22:31;8.00;;;2.92;;
6223;SDS011;3145;42.726;23.342;2023-08-31T06:24:58;3.70;;;2.60;;
6223;SDS011;3145;42.726;23.342;2023-08-31T06:27:24;10.40;;;2.20;;
6223;SDS011;3145;42.726;23.342;2023-08-31T06:29:51;6.45;;;2.17;;
6223;SDS011;3145;42.726;23.342;2023-08-31T06:32:18;8.38;;;2.42;;
6223;SDS011;3145;42.726;23.342;2023-08-31T06:34:46;8.15;;;2.10;;
6223;SDS011;3145;42.726;23.342;2023-08-31T06:37:13;6.47;;;2.67;;
6223;SDS011;3145;42.726;23.342;2023-08-31T06:39:40;8.98;;;3.10;;
6223;SDS011;3145;42.726;23.342;2023-08-31T06:42:06;17.70;;;5.75;;
6223;SDS011;3145;42.726;23.342;2023-08-31T06:44:33;10.77;;;4.53;;
6223;SDS011;3145;42.726;23.342;2023-08-31T06:47:00;13.15;;;5.97;;
6223;SDS011;3145;42.726;23.342;2023-08-31T06:49:28;8.93;;;3.17;;
6223;SDS011;3145;42.726;23.342;2023-08-31T06:51:59;3.85;;;2.63;;
6223;SDS011;3145;42.726;23.342;2023-08-31T06:54:27;8.13;;;3.38;;
6223;SDS011;3145;42.726;23.342;2023-08-31T06:56:54;11.35;;;4.35;;
6223;SDS011;3145;42.726;23.342;2023-08-31T06:59:20;4.78;;;1.90;;
6223;SDS011;3145;42.726;23.342;2023-08-31T07:01:47;8.88;;;2.53;;
6223;SDS011;3145;42.726;23.342;2023-08-31T07:04:14;4.35;;;1.70;;
6223;SDS011;3145;42.726;23.342;2023-08-31T07:06:40;4.75;;;1.30;;
6223;SDS011;3145;42.726;23.342;2023-08-31T07:09:09;5.78;;;1.80;;
6223;SDS011;3145;42.726;23.342;2023-08-31T07:11:35;7.20;;;1.75;;
6223;SDS011;3145;42.726;23.342;2023-08-31T07:14:02;6.43;;;2.10;;
6223;SDS011;3145;42.726;23.342;2023-08-31T07:16:29;4.90;;;1.70;;
6223;SDS011;3145;42.726;23.342;2023-08-31T07:18:55;5.00;;;1.25;;
6223;SDS011;3145;42.726;23.342;2023-08-31T07:21:22;4.88;;;1.20;;
6223;SDS011;3145;42.726;23.342;2023-08-31T07:23:49;4.68;;;1.27;;
6223;SDS011;3145;42.726;23.342;2023-08-31T07:26:17;4.07;;;1.88;;
6223;SDS011;3145;42.726;23.342;2023-08-31T07:28:43;6.50;;;1.65;;
6223;SDS011;3145;42.726;23.342;2023-08-31T07:31:10;5.40;;;1.40;;
6223;SDS011;3145;42.726;23.342;2023-08-31T07:33:37;5.68;;;1.60;;
6223;SDS011;3145;42.726;23.342;2023-08-31T07:36:04;4.00;;;1.40;;
6223;SDS011;3145;42.726;23.342;2023-08-31T07:38:31;5.25;;;1.48;;
6223;SDS011;3145;42.726;23.342;2023-08-31T07:40:59;3.75;;;1.92;;
6223;SDS011;3145;42.726;23.342;2023-08-31T07:43:27;6.18;;;1.60;;
6223;SDS011;3145;42.726;23.342;2023-08-31T07:45:54;2.92;;;1.48;;
6223;SDS011;3145;42.726;23.342;2023-08-31T07:48:21;4.10;;;1.48;;
6223;SDS011;3145;42.726;23.342;2023-08-31T07:50:48;4.65;;;1.90;;
6223;SDS011;3145;42.726;23.342;2023-08-31T07:53:14;4.20;;;1.77;;
6223;SDS011;3145;42.726;23.342;2023-08-31T07:55:50;9.93;;;1.95;;
6223;SDS011;3145;42.726;23.342;2023-08-31T07:58:18;6.20;;;1.92;;
6223;SDS011;3145;42.726;23.342;2023-08-31T08:00:46;3.13;;;1.77;;
6223;SDS011;3145;42.726;23.342;2023-08-31T08:03:12;4.28;;;1.58;;
6223;SDS011;3145;42.726;23.342;2023-08-31T08:05:39;5.28;;;1.88;;
6223;SDS011;3145;42.726;23.342;2023-08-31T08:08:06;2.35;;;1.40;;
6223;SDS011;3145;42.726;23.342;2023-08-31T08:10:33;12.05;;;3.40;;
6223;SDS011;3145;42.726;23.342;2023-08-31T08:13:00;6.93;;;1.80;;
6223;SDS011;3145;42.726;23.342;2023-08-31T08:15:26;4.40;;;1.35;;
6223;SDS011;3145;42.726;23.342;2023-08-31T08:17:54;4.82;;;1.80;;
6223;SDS011;3145;42.726;23.342;2023-08-31T08:20:22;5.68;;;2.13;;
6223;SDS011;3145;42.726;23.342;2023-08-31T08:22:49;4.35;;;1.67;;
6223;SDS011;3145;42.726;23.342;2023-08-31T08:25:17;3.58;;;1.35;;
6223;SDS011;3145;42.726;23.342;2023-08-31T08:27:44;6.90;;;2.03;;
6223;SDS011;3145;42.726;23.342;2023-08-31T08:30:11;5.82;;;1.77;;
6223;SDS011;3145;42.726;23.342;2023-08-31T08:32:38;9.02;;;1.88;;
6223;SDS011;3145;42.726;23.342;2023-08-31T08:35:06;2.35;;;1.83;;
6223;SDS011;3145;42.726;23.342;2023-08-31T08:37:33;3.17;;;2.50;;
6223;SDS011;3145;42.726;23.342;2023-08-31T08:40:00;5.93;;;2.50;;
6223;SDS011;3145;42.726;23.342;2023-08-31T08:42:29;7.57;;;2.53;;
6223;SDS011;3145;42.726;23.342;2023-08-31T08:44:56;3.03;;;2.50;;
6223;SDS011;3145;42.726;23.342;2023-08-31T08:47:24;6.25;;;2.88;;
6223;SDS011;3145;42.726;23.342;2023-08-31T08:49:52;3.45;;;3.15;;
6223;SDS011;3145;42.726;23.342;2023-08-31T08:52:21;8.20;;;2.05;;
6223;SDS011;3145;42.726;23.342;2023-08-31T08:54:49;2.50;;;2.08;;
6223;SDS011;3145;42.726;23.342;2023-08-31T08:57:15;2.50;;;1.52;;
6223;SDS011;3145;42.726;23.342;2023-08-31T08:59:42;4.18;;;1.70;;
6223;SDS011;3145;42.726;23.342;2023-08-31T09:02:10;4.45;;;1.98;;
6223;SDS011;3145;42.726;23.342;2023-08-31T09:04:37;3.85;;;2.20;;
6223;SDS011;3145;42.726;23.342;2023-08-31T09:07:04;5.50;;;2.95;;
6223;SDS011;3145;42.726;23.342;2023-08-31T09:09:32;6.40;;;2.72;;
6223;SDS011;3145;42.726;23.342;2023-08-31T09:12:14;3.30;;;2.67;;
6223;SDS011;3145;42.726;23.342;2023-08-31T09:14:41;5.18;;;2.85;;
6223;SDS011;3145;42.726;23.342;2023-08-31T09:17:08;4.00;;;2.65;;
6223;SDS011;3145;42.726;23.342;2023-08-31T09:19:35;6.55;;;3.15;;
6223;SDS011;3145;42.726;23.342;2023-08-31T09:22:01;4.72;;;2.50;;
6223;SDS011;3145;42.726;23.342;2023-08-31T09:24:28;2.95;;;2.35;;
6223;SDS011;3145;42.726;23.342;2023-08-31T09:26:57;8.00;;;2.83;;
6223;SDS011;3145;42.726;23.342;2023-08-31T09:29:24;3.45;;;2.67;;
6223;SDS011;3145;42.726;23.342;2023-08-31T09:31:51;3.60;;;2.85;;
6223;SDS011;3145;42.726;23.342;2023-08-31T09:34:18;3.65;;;2.92;;
6223;SDS011;3145;42.726;23.342;2023-08-31T09:36:45;2.55;;;2.35;;
6223;SDS011;3145;42.726;23.342;2023-08-31T09:39:13;4.90;;;2.95;;
6223;SDS011;3145;42.726;23.342;2023-08-31T09:41:51;3.33;;;2.78;;
6223;SDS011;3145;42.726;23.342;2023-08-31T09:44:20;3.17;;;2.88;;
6223;SDS011;3145;42.726;23.342;2023-08-31T09:46:47;2.70;;;2.50;;
6223;SDS011;3145;42.726;23.342;2023-08-31T09:49:14;4.72;;;3.65;;
6223;SDS011;3145;42.726;23.342;2023-08-31T09:51:44;5.35;;;3.30;;
6223;SDS011;3145;42.726;23.342;2023-08-31T09:54:13;3.67;;;3.38;;
6223;SDS011;3145;42.726;23.342;2023-08-31T09:56:40;3.25;;;2.95;;
6223;SDS011;3145;42.726;23.342;2023-08-31T09:59:08;3.13;;;2.83;;
6223;SDS011;3145;42.726;23.342;2023-08-31T10:01:37;4.13;;;3.45;;
6223;SDS011;3145;42.726;23.342;2023-08-31T10:04:04;4.18;;;3.78;;
6223;SDS011;3145;42.726;23.342;2023-08-31T10:06:33;5.05;;;3.90;;
6223;SDS011;3145;42.726;23.342;2023-08-31T10:09:01;3.83;;;3.42;;
6223;SDS011;3145;42.726;23.342;2023-08-31T10:11:28;4.53;;;3.40;;
6223;SDS011;3145;42.726;23.342;2023-08-31T10:13:57;3.80;;;3.50;;
6223;SDS011;3145;42.726;23.342;2023-08-31T10:16:25;4.00;;;3.08;;
6223;SDS011;3145;42.726;23.342;2023-08-31T10:18:53;4.10;;;3.67;;
6223;SDS011;3145;42.726;23.342;2023-08-31T10:21:21;4.38;;;3.35;;
6223;SDS011;3145;42.726;23.342;2023-08-31T10:23:49;3.38;;;3.08;;
6223;SDS011;3145;42.726;23.342;2023-08-31T10:26:25;4.72;;;4.30;;
6223;SDS011;3145;42.726;23.342;2023-08-31T10:28:53;21.38;;;5.38;;
6223;SDS011;3145;42.726;23.342;2023-08-31T10:31:20;4.00;;;3.60;;
6223;SDS011;3145;42.726;23.342;2023-08-31T10:33:55;5.72;;;3.63;;
6223;SDS011;3145;42.726;23.342;2023-08-31T10:36:34;4.00;;;3.60;;
6223;SDS011;3145;42.726;23.342;2023-08-31T10:39:06;3.90;;;3.40;;
6223;SDS011;3145;42.726;23.342;2023-08-31T10:41:38;4.40;;;3.38;;
6223;SDS011;3145;42.726;23.342;2023-08-31T10:44:17;3.22;;;2.92;;
6223;SDS011;3145;42.726;23.342;2023-08-31T10:46:45;3.80;;;3.50;;
6223;SDS011;3145;42.726;23.342;2023-08-31T10:49:14;4.40;;;3.33;;
6223;SDS011;3145;42.726;23.342;2023-08-31T10:51:43;6.90;;;3.78;;
6223;SDS011;3145;42.726;23.342;2023-08-31T10:54:11;3.40;;;3.10;;
6223;SDS011;3145;42.726;23.342;2023-08-31T10:57:00;3.45;;;3.15;;
6223;SDS011;3145;42.726;23.342;2023-08-31T10:59:41;3.75;;;3.45;;
6223;SDS011;3145;42.726;23.342;2023-08-31T11:02:27;3.88;;;3.42;;
6223;SDS011;3145;42.726;23.342;2023-08-31T11:05:02;5.35;;;3.67;;
6223;SDS011;3145;42.726;23.342;2023-08-31T11:07:32;4.85;;;3.80;;
6223;SDS011;3145;42.726;23.342;2023-08-31T11:10:13;4.95;;;4.13;;
6223;SDS011;3145;42.726;23.342;2023-08-31T11:12:43;3.65;;;3.20;;
6223;SDS011;3145;42.726;23.342;2023-08-31T11:15:11;3.70;;;3.20;;
6223;SDS011;3145;42.726;23.342;2023-08-31T11:17:39;3.72;;;2.47;;
6223;SDS011;3145;42.726;23.342;2023-08-31T11:20:08;4.00;;;3.22;;
6223;SDS011;3145;42.726;23.342;2023-08-31T11:22:39;3.95;;;3.05;;
6223;SDS011;3145;42.726;23.342;2023-08-31T11:25:07;6.43;;;3.45;;
6223;SDS011;3145;42.726;23.342;2023-08-31T11:27:35;3.70;;;2.83;;
6223;SDS011;3145;42.726;23.342;2023-08-31T11:30:02;4.88;;;3.25;;
6223;SDS011;3145;42.726;23.342;2023-08-31T11:32:29;5.25;;;3.38;;
6223;SDS011;3145;42.726;23.342;2023-08-31T11:34:56;6.00;;;4.10;;
6223;SDS011;3145;42.726;23.342;2023-08-31T11:37:24;8.75;;;5.28;;
6223;SDS011;3145;42.726;23.342;2023-08-31T11:39:52;9.32;;;4.03;;
6223;SDS011;3145;42.726;23.342;2023-08-31T11:42:20;13.60;;;3.95;;
6223;SDS011;3145;42.726;23.342;2023-08-31T11:44:47;9.20;;;3.38;;
6223;SDS011;3145;42.726;23.342;2023-08-31T11:47:15;10.25;;;3.15;;
6223;SDS011;3145;42.726;23.342;2023-08-31T11:49:42;65.28;;;11.30;;
6223;SDS011;3145;42.726;23.342;2023-08-31T11:52:10;17.38;;;4.35;;
6223;SDS011;3145;42.726;23.342;2023-08-31T11:54:39;8.57;;;3.08;;
6223;SDS011;3145;42.726;23.342;2023-08-31T11:57:09;25.83;;;6.40;;
6223;SDS011;3145;42.726;23.342;2023-08-31T11:59:37;6.72;;;2.15;;
6223;SDS011;3145;42.726;23.342;2023-08-31T12:02:05;6.07;;;2.30;;
6223;SDS011;3145;42.726;23.342;2023-08-31T12:04:32;5.40;;;2.38;;
6223;SDS011;3145;42.726;23.342;2023-08-31T12:07:01;9.55;;;3.33;;
6223;SDS011;3145;42.726;23.342;2023-08-31T12:09:30;5.43;;;2.75;;
6223;SDS011;3145;42.726;23.342;2023-08-31T12:11:58;8.95;;;2.55;;
6223;SDS011;3145;42.726;23.342;2023-08-31T12:14:25;2.25;;;1.98;;
6223;SDS011;3145;42.726;23.342;2023-08-31T12:16:59;7.95;;;2.72;;
6223;SDS011;3145;42.726;23.342;2023-08-31T12:19:28;3.53;;;1.90;;
6223;SDS011;3145;42.726;23.342;2023-08-31T12:21:55;4.53;;;1.92;;
6223;SDS011;3145;42.726;23.342;2023-08-31T12:24:22;3.50;;;1.92;;
6223;SDS011;3145;42.726;23.342;2023-08-31T12:26:49;3.25;;;2.38;;
6223;SDS011;3145;42.726;23.342;2023-08-31T12:29:20;4.97;;;2.15;;
6223;SDS011;3145;42.726;23.342;2023-08-31T12:31:47;4.70;;;2.28;;
6223;SDS011;3145;42.726;23.342;2023-08-31T12:34:14;5.18;;;2.42;;
6223;SDS011;3145;42.726;23.342;2023-08-31T12:36:41;3.92;;;2.45;;
6223;SDS011;3145;42.726;23.342;2023-08-31T12:39:08;3.08;;;2.22;;
6223;SDS011;3145;42.726;23.342;2023-08-31T12:41:35;3.30;;;2.30;;
6223;SDS011;3145;42.726;23.342;2023-08-31T12:44:03;3.05;;;1.85;;
6223;SDS011;3145;42.726;23.342;2023-08-31T12:46:31;3.00;;;2.17;;
6223;SDS011;3145;42.726;23.342;2023-08-31T12:48:58;3.97;;;2.10;;
6223;SDS011;3145;42.726;23.342;2023-08-31T12:51:26;3.78;;;2.13;;
6223;SDS011;3145;42.726;23.342;2023-08-31T12:53:52;4.20;;;2.30;;
6223;SDS011;3145;42.726;23.342;2023-08-31T12:56:19;33.97;;;6.50;;
6223;SDS011;3145;42.726;23.342;2023-08-31T12:58:48;18.33;;;4.40;;
6223;SDS011;3145;42.726;23.342;2023-08-31T13:01:16;4.05;;;2.25;;
6223;SDS011;3145;42.726;23.342;2023-08-31T13:03:44;2.45;;;2.25;;
6223;SDS011;3145;42.726;23.342;2023-08-31T13:06:12;3.65;;;2.20;;
6223;SDS011;3145;42.726;23.342;2023-08-31T13:08:39;5.20;;;2.30;;
6223;SDS011;3145;42.726;23.342;2023-08-31T13:11:05;3.78;;;2.40;;
6223;SDS011;3145;42.726;23.342;2023-08-31T13:13:32;3.55;;;2.03;;
6223;SDS011;3145;42.726;23.342;2023-08-31T13:15:59;5.93;;;3.25;;
6223;SDS011;3145;42.726;23.342;2023-08-31T13:18:27;15.32;;;4.13;;
6223;SDS011;3145;42.726;23.342;2023-08-31T13:20:55;13.02;;;2.58;;
6223;SDS011;3145;42.726;23.342;2023-08-31T13:23:22;7.07;;;2.50;;
6223;SDS011;3145;42.726;23.342;2023-08-31T13:25:49;3.85;;;2.60;;
6223;SDS011;3145;42.726;23.342;2023-08-31T13:28:16;4.57;;;2.55;;
6223;SDS011;3145;42.726;23.342;2023-08-31T13:30:43;2.08;;;1.88;;
6223;SDS011;3145;42.726;23.342;2023-08-31T13:33:10;2.63;;;1.98;;
6223;SDS011;3145;42.726;23.342;2023-08-31T13:35:36;4.18;;;2.63;;
6223;SDS011;3145;42.726;23.342;2023-08-31T13:38:05;6.10;;;2.10;;
6223;SDS011;3145;42.726;23.342;2023-08-31T13:40:33;4.60;;;1.95;;
6223;SDS011;3145;42.726;23.342;2023-08-31T13:43:00;4.35;;;1.90;;
6223;SDS011;3145;42.726;23.342;2023-08-31T13:45:28;4.97;;;2.17;;
6223;SDS011;3145;42.726;23.342;2023-08-31T13:47:55;9.38;;;2.92;;
6223;SDS011;3145;42.726;23.342;2023-08-31T13:50:21;4.25;;;2.00;;
6223;SDS011;3145;42.726;23.342;2023-08-31T13:52:48;2.85;;;1.80;;
6223;SDS011;3145;42.726;23.342;2023-08-31T13:55:17;3.55;;;1.88;;
6223;SDS011;3145;42.726;23.342;2023-08-31T13:57:43;5.03;;;2.08;;
6223;SDS011;3145;42.726;23.342;2023-08-31T14:00:11;2.17;;;1.63;;
6223;SDS011;3145;42.726;23.342;2023-08-31T14:02:38;3.05;;;1.85;;
6223;SDS011;3145;42.726;23.342;2023-08-31T14:05:05;3.78;;;2.10;;
6223;SDS011;3145;42.726;23.342;2023-08-31T14:07:34;6.85;;;2.00;;
6223;SDS011;3145;42.726;23.342;2023-08-31T14:10:00;3.78;;;1.83;;
6223;SDS011;3145;42.726;23.342;2023-08-31T14:12:29;4.97;;;2.20;;
6223;SDS011;3145;42.726;23.342;2023-08-31T14:14:57;3.42;;;2.03;;
6223;SDS011;3145;42.726;23.342;2023-08-31T14:17:26;3.55;;;2.05;;
6223;SDS011;3145;42.726;23.342;2023-08-31T14:19:52;3.42;;;2.05;;
6223;SDS011;3145;42.726;23.342;2023-08-31T14:22:19;7.30;;;2.38;;
6223;SDS011;3145;42.726;23.342;2023-08-31T14:24:46;3.08;;;2.22;;
6223;SDS011;3145;42.726;23.342;2023-08-31T14:27:12;5.60;;;2.40;;
6223;SDS011;3145;42.726;23.342;2023-08-31T14:29:40;3.45;;;2.35;;
6223;SDS011;3145;42.726;23.342;2023-08-31T14:32:07;5.82;;;2.00;;
6223;SDS011;3145;42.726;23.342;2023-08-31T14:34:34;4.53;;;2.30;;
6223;SDS011;3145;42.726;23.342;2023-08-31T14:37:01;2.90;;;2.20;;
6223;SDS011;3145;42.726;23.342;2023-08-31T14:39:28;5.63;;;2.78;;
6223;SDS011;3145;42.726;23.342;2023-08-31T14:41:55;4.57;;;2.17;;
6223;SDS011;3145;42.726;23.342;2023-08-31T14:44:23;5.15;;;1.92;;
6223;SDS011;3145;42.726;23.342;2023-08-31T14:46:51;3.67;;;2.38;;
6223;SDS011;3145;42.726;23.342;2023-08-31T14:49:18;4.38;;;2.42;;
6223;SDS011;3145;42.726;23.342;2023-08-31T14:51:44;4.82;;;2.83;;
6223;SDS011;3145;42.726;23.342;2023-08-31T14:54:11;10.10;;;2.42;;
6223;SDS011;3145;42.726;23.342;2023-08-31T14:56:38;12.00;;;2.80;;
6223;SDS011;3145;42.726;23.342;2023-08-31T14:59:05;12.95;;;3.20;;
6223;SDS011;3145;42.726;23.342;2023-08-31T15:01:32;14.23;;;3.13;;
6223;SDS011;3145;42.726;23.342;2023-08-31T15:04:00;5.53;;;2.97;;